sensor_id;sensor_type;location;lat;lon;timestamp;pressure;altitude;pressure_sealevel;temperature;humidity
6030;BME280;3043;42.682;23.376;2022-08-20T00:01:24;94588.69;;;24.42;100.00
6030;BME280;3043;42.682;23.376;2022-08-20T00:03:50;94591.34;;;24.42;100.00
6030;BME280;3043;42.682;23.376;2022-08-20T00:06:18;94594.13;;;24.41;100.00
6030;BME280;3043;42.682;23.376;2022-08-20T00:08:45;94597.44;;;24.43;100.00
6030;BME280;3043;42.682;23.376;2022-08-20T00:11:13;94597.19;;;24.46;100.00
6030;BME280;3043;42.682;23.376;2022-08-20T00:13:44;94603.66;;;24.53;100.00
6030;BME280;3043;42.682;23.376;2022-08-20T00:16:12;94598.66;;;24.60;100.00
6030;BME280;3043;42.682;23.376;2022-08-20T00:18:38;94595.19;;;24.59;100.00
6030;BME280;3043;42.682;23.376;2022-08-20T00:21:07;94588.66;;;24.63;100.00
6030;BME280;3043;42.682;23.376;2022-08-20T00:23:37;94593.25;;;24.61;100.00
6030;BME280;3043;42.682;23.376;2022-08-20T00:26:04;94596.75;;;24.62;100.00
6030;BME280;3043;42.682;23.376;2022-08-20T00:28:30;94594.72;;;24.65;100.00
6030;BME280;3043;42.682;23.376;2022-08-20T00:30:55;94586.25;;;24.71;100.00
6030;BME280;3043;42.682;23.376;2022-08-20T00:33:22;94591.84;;;24.78;100.00
6030;BME280;3043;42.682;23.376;2022-08-20T00:35:53;94587.38;;;24.78;100.00
6030;BME280;3043;42.682;23.376;2022-08-20T00:38:21;94587.38;;;24.78;100.00
6030;BME280;3043;42.682;23.376;2022-08-20T00:40:54;94590.47;;;24.83;100.00
6030;BME280;3043;42.682;23.376;2022-08-20T00:43:41;94591.72;;;24.79;100.00
6030;BME280;3043;42.682;23.376;2022-08-20T00:46:12;94591.34;;;24.84;100.00
6030;BME280;3043;42.682;23.376;2022-08-20T00:48:41;94587.13;;;24.81;100.00
6030;BME280;3043;42.682;23.376;2022-08-20T00:51:16;94588.56;;;24.85;100.00
6030;BME280;3043;42.682;23.376;2022-08-20T00:53:43;94580.41;;;24.77;100.00
6030;BME280;3043;42.682;23.376;2022-08-20T00:56:09;94578.50;;;24.79;100.00
6030;BME280;3043;42.682;23.376;2022-08-20T00:58:36;94580.41;;;24.77;100.00
6030;BME280;3043;42.682;23.376;2022-08-20T01:01:03;94577.44;;;24.71;100.00
6030;BME280;3043;42.682;23.376;2022-08-20T01:03:29;94577.59;;;24.69;100.00
6030;BME280;3043;42.682;23.376;2022-08-20T01:05:55;94576.19;;;24.65;100.00
6030;BME280;3043;42.682;23.376;2022-08-20T01:08:22;94567.03;;;24.58;100.00
6030;BME280;3043;42.682;23.376;2022-08-20T01:10:48;94571.91;;;24.53;100.00
6030;BME280;3043;42.682;23.376;2022-08-20T01:13:20;94572.69;;;24.44;100.00
6030;BME280;3043;42.682;23.376;2022-08-20T01:15:48;94563.31;;;24.40;100.00
6030;BME280;3043;42.682;23.376;2022-08-20T01:18:18;94560.94;;;24.37;100.00
6030;BME280;3043;42.682;23.376;2022-08-20T01:20:54;94559.53;;;24.33;100.00
6030;BME280;3043;42.682;23.376;2022-08-20T01:23:23;94563.53;;;24.27;100.00
6030;BME280;3043;42.682;23.376;2022-08-20T01:29:03;94549.78;;;24.13;100.00
6030;BME280;3043;42.682;23.376;2022-08-20T01:31:35;94555.31;;;24.10;100.00
6030;BME280;3043;42.682;23.376;2022-08-20T01:34:05;94554.88;;;24.05;100.00
6030;BME280;3043;42.682;23.376;2022-08-20T01:36:43;94549.84;;;24.02;100.00
6030;BME280;3043;42.682;23.376;2022-08-20T01:39:13;94553.47;;;24.01;100.00
6030;BME280;3043;42.682;23.376;2022-08-20T01:44:14;94559.22;;;23.95;100.00
6030;BME280;3043;42.682;23.376;2022-08-20T01:46:42;94555.84;;;23.93;100.00
6030;BME280;3043;42.682;23.376;2022-08-20T01:49:11;94552.78;;;23.88;100.00
6030;BME280;3043;42.682;23.376;2022-08-20T01:51:37;94553.03;;;23.85;100.00
6030;BME280;3043;42.682;23.376;2022-08-20T01:54:03;94551.09;;;23.87;100.00
6030;BME280;3043;42.682;23.376;2022-08-20T01:56:30;94543.88;;;23.89;100.00
6030;BME280;3043;42.682;23.376;2022-08-20T01:58:58;94535.94;;;23.89;100.00
6030;BME280;3043;42.682;23.376;2022-08-20T02:03:53;94531.16;;;23.83;100.00
6030;BME280;3043;42.682;23.376;2022-08-20T02:06:22;94538.63;;;23.78;100.00
6030;BME280;3043;42.682;23.376;2022-08-20T02:08:59;94529.81;;;23.68;100.00
6030;BME280;3043;42.682;23.376;2022-08-20T02:11:26;94536.66;;;23.59;100.00
6030;BME280;3043;42.682;23.376;2022-08-20T02:13:52;94530.81;;;23.56;100.00
6030;BME280;3043;42.682;23.376;2022-08-20T02:16:26;94536.09;;;23.56;100.00
6030;BME280;3043;42.682;23.376;2022-08-20T02:18:55;94532.00;;;23.52;100.00
6030;BME280;3043;42.682;23.376;2022-08-20T02:21:23;94524.44;;;23.58;100.00
6030;BME280;3043;42.682;23.376;2022-08-20T02:23:49;94536.75;;;23.69;100.00
6030;BME280;3043;42.682;23.376;2022-08-20T02:26:15;94531.22;;;23.72;100.00
6030;BME280;3043;42.682;23.376;2022-08-20T02:28:47;94528.19;;;23.76;100.00
6030;BME280;3043;42.682;23.376;2022-08-20T02:31:15;94536.25;;;23.75;100.00
6030;BME280;3043;42.682;23.376;2022-08-20T02:33:41;94529.28;;;23.74;100.00
6030;BME280;3043;42.682;23.376;2022-08-20T02:36:06;94530.13;;;23.74;100.00
6030;BME280;3043;42.682;23.376;2022-08-20T02:38:32;94524.84;;;23.74;100.00
6030;BME280;3043;42.682;23.376;2022-08-20T02:41:00;94526.19;;;23.69;100.00
6030;BME280;3043;42.682;23.376;2022-08-20T02:43:25;94522.84;;;23.67;100.00
6030;BME280;3043;42.682;23.376;2022-08-20T02:45:51;94528.13;;;23.67;100.00
6030;BME280;3043;42.682;23.376;2022-08-20T02:48:18;94523.09;;;23.64;100.00
6030;BME280;3043;42.682;23.376;2022-08-20T02:50:47;94527.19;;;23.57;100.00
6030;BME280;3043;42.682;23.376;2022-08-20T02:53:14;94522.41;;;23.51;100.00
6030;BME280;3043;42.682;23.376;2022-08-20T02:55:39;94532.84;;;23.52;100.00
6030;BME280;3043;42.682;23.376;2022-08-20T02:58:05;94534.22;;;23.47;100.00
6030;BME280;3043;42.682;23.376;2022-08-20T03:00:31;94534.47;;;23.44;100.00
6030;BME280;3043;42.682;23.376;2022-08-20T03:02:56;94534.47;;;23.33;100.00
6030;BME280;3043;42.682;23.376;2022-08-20T03:05:22;94541.94;;;23.28;100.00
6030;BME280;3043;42.682;23.376;2022-08-20T03:07:51;94535.69;;;23.18;100.00
6030;BME280;3043;42.682;23.376;2022-08-20T03:10:32;94540.00;;;23.08;100.00
6030;BME280;3043;42.682;23.376;2022-08-20T03:12:58;94536.56;;;22.96;100.00
6030;BME280;3043;42.682;23.376;2022-08-20T03:15:30;94542.22;;;22.92;100.00
6030;BME280;3043;42.682;23.376;2022-08-20T03:17:56;94536.44;;;22.87;100.00
6030;BME280;3043;42.682;23.376;2022-08-20T03:20:22;94540.06;;;22.86;100.00
6030;BME280;3043;42.682;23.376;2022-08-20T03:22:48;94536.69;;;22.83;100.00
6030;BME280;3043;42.682;23.376;2022-08-20T03:25:15;94531.66;;;22.80;100.00
6030;BME280;3043;42.682;23.376;2022-08-20T03:27:41;94533.00;;;22.75;100.00
6030;BME280;3043;42.682;23.376;2022-08-20T03:30:09;94534.78;;;22.74;100.00
6030;BME280;3043;42.682;23.376;2022-08-20T03:32:36;94533.84;;;22.75;100.00
6030;BME280;3043;42.682;23.376;2022-08-20T03:35:02;94535.75;;;22.73;100.00
6030;BME280;3043;42.682;23.376;2022-08-20T03:37:30;94536.72;;;22.72;100.00
6030;BME280;3043;42.682;23.376;2022-08-20T03:39:57;94536.34;;;22.77;100.00
6030;BME280;3043;42.682;23.376;2022-08-20T03:42:22;94532.50;;;22.81;100.00
6030;BME280;3043;42.682;23.376;2022-08-20T03:44:48;94539.34;;;22.83;100.00
6030;BME280;3043;42.682;23.376;2022-08-20T03:47:13;94538.38;;;22.85;100.00
6030;BME280;3043;42.682;23.376;2022-08-20T03:49:38;94544.84;;;22.92;100.00
6030;BME280;3043;42.682;23.376;2022-08-20T03:52:04;94554.44;;;22.93;100.00
6030;BME280;3043;42.682;23.376;2022-08-20T03:54:30;94547.97;;;22.97;100.00
6030;BME280;3043;42.682;23.376;2022-08-20T03:56:56;94551.66;;;23.05;100.00
6030;BME280;3043;42.682;23.376;2022-08-20T03:59:21;94553.34;;;23.06;100.00
6030;BME280;3043;42.682;23.376;2022-08-20T04:01:47;94546.75;;;23.12;100.00
6030;BME280;3043;42.682;23.376;2022-08-20T04:04:13;94556.69;;;23.19;100.00
6030;BME280;3043;42.682;23.376;2022-08-20T04:06:39;94554.19;;;23.18;100.00
6030;BME280;3043;42.682;23.376;2022-08-20T04:09:05;94557.09;;;23.26;100.00
6030;BME280;3043;42.682;23.376;2022-08-20T04:11:30;94553.44;;;23.38;100.00
6030;BME280;3043;42.682;23.376;2022-08-20T04:13:57;94548.84;;;23.51;100.00
6030;BME280;3043;42.682;23.376;2022-08-20T04:16:23;94552.84;;;23.66;100.00
6030;BME280;3043;42.682;23.376;2022-08-20T04:18:48;94552.09;;;23.75;100.00
6030;BME280;3043;42.682;23.376;2022-08-20T04:21:15;94559.72;;;23.89;100.00
6030;BME280;3043;42.682;23.376;2022-08-20T04:23:40;94560.66;;;23.99;100.00
6030;BME280;3043;42.682;23.376;2022-08-20T04:26:06;94559.41;;;24.14;100.00
6030;BME280;3043;42.682;23.376;2022-08-20T04:28:31;94562.16;;;24.33;100.00
6030;BME280;3043;42.682;23.376;2022-08-20T04:30:59;94563.19;;;24.41;100.00
6030;BME280;3043;42.682;23.376;2022-08-20T04:33:26;94558.09;;;24.70;100.00
6030;BME280;3043;42.682;23.376;2022-08-20T04:35:53;94562.88;;;24.86;100.00
6030;BME280;3043;42.682;23.376;2022-08-20T04:38:21;94568.81;;;25.08;100.00
6030;BME280;3043;42.682;23.376;2022-08-20T04:40:47;94563.88;;;25.24;100.00
6030;BME280;3043;42.682;23.376;2022-08-20T04:43:19;94562.00;;;25.45;100.00
6030;BME280;3043;42.682;23.376;2022-08-20T04:45:47;94552.84;;;25.68;100.00
6030;BME280;3043;42.682;23.376;2022-08-20T04:48:13;94560.84;;;26.06;100.00
6030;BME280;3043;42.682;23.376;2022-08-20T04:50:42;94564.28;;;26.36;100.00
6030;BME280;3043;42.682;23.376;2022-08-20T04:53:10;94563.41;;;26.64;100.00
6030;BME280;3043;42.682;23.376;2022-08-20T04:55:38;94562.78;;;26.89;100.00
6030;BME280;3043;42.682;23.376;2022-08-20T04:58:09;94567.69;;;27.30;100.00
6030;BME280;3043;42.682;23.376;2022-08-20T05:00:35;94563.00;;;27.59;100.00
6030;BME280;3043;42.682;23.376;2022-08-20T05:03:02;94565.59;;;27.96;100.00
6030;BME280;3043;42.682;23.376;2022-08-20T05:05:28;94572.66;;;28.57;95.63
6030;BME280;3043;42.682;23.376;2022-08-20T05:07:55;94573.19;;;28.86;93.35
6030;BME280;3043;42.682;23.376;2022-08-20T05:10:22;94577.94;;;29.34;87.95
6030;BME280;3043;42.682;23.376;2022-08-20T05:12:48;94577.78;;;29.69;86.37
6030;BME280;3043;42.682;23.376;2022-08-20T05:15:14;94572.66;;;29.84;85.09
6030;BME280;3043;42.682;23.376;2022-08-20T05:17:41;94572.44;;;30.35;78.57
6030;BME280;3043;42.682;23.376;2022-08-20T05:20:09;94573.25;;;30.51;76.41
6030;BME280;3043;42.682;23.376;2022-08-20T05:22:35;94568.22;;;30.72;74.68
6030;BME280;3043;42.682;23.376;2022-08-20T05:25:01;94564.41;;;30.75;74.55
6030;BME280;3043;42.682;23.376;2022-08-20T05:27:27;94565.09;;;30.85;72.61
6030;BME280;3043;42.682;23.376;2022-08-20T05:29:59;94565.06;;;30.69;76.04
6030;BME280;3043;42.682;23.376;2022-08-20T05:32:25;94564.34;;;31.15;72.53
6030;BME280;3043;42.682;23.376;2022-08-20T05:34:50;94562.53;;;31.54;66.76
6030;BME280;3043;42.682;23.376;2022-08-20T05:37:16;94557.97;;;31.32;68.37
6030;BME280;3043;42.682;23.376;2022-08-20T05:39:42;94565.06;;;31.94;65.65
6030;BME280;3043;42.682;23.376;2022-08-20T05:42:08;94563.81;;;32.27;62.33
6030;BME280;3043;42.682;23.376;2022-08-20T05:44:34;94561.13;;;32.35;62.19
6030;BME280;3043;42.682;23.376;2022-08-20T05:47:02;94560.84;;;32.67;60.82
6030;BME280;3043;42.682;23.376;2022-08-20T05:49:29;94557.25;;;32.98;57.94
6030;BME280;3043;42.682;23.376;2022-08-20T05:51:55;94566.13;;;33.13;57.18
6030;BME280;3043;42.682;23.376;2022-08-20T05:54:20;94560.22;;;33.32;55.50
6030;BME280;3043;42.682;23.376;2022-08-20T05:56:48;94559.66;;;33.22;55.93
6030;BME280;3043;42.682;23.376;2022-08-20T05:59:14;94564.28;;;33.28;56.47
6030;BME280;3043;42.682;23.376;2022-08-20T06:01:40;94564.75;;;33.75;54.55
6030;BME280;3043;42.682;23.376;2022-08-20T06:04:08;94558.09;;;34.21;52.21
6030;BME280;3043;42.682;23.376;2022-08-20T06:06:56;94549.84;;;34.65;49.79
6030;BME280;3043;42.682;23.376;2022-08-20T06:09:25;94543.06;;;34.90;48.06
6030;BME280;3043;42.682;23.376;2022-08-20T06:11:52;94542.50;;;34.94;47.92
6030;BME280;3043;42.682;23.376;2022-08-20T06:14:17;94546.13;;;35.14;48.39
6030;BME280;3043;42.682;23.376;2022-08-20T06:16:44;94552.22;;;35.23;47.46
6030;BME280;3043;42.682;23.376;2022-08-20T06:19:10;94558.09;;;35.73;45.78
6030;BME280;3043;42.682;23.376;2022-08-20T06:21:36;94563.28;;;36.16;44.46
6030;BME280;3043;42.682;23.376;2022-08-20T06:24:01;94566.25;;;36.34;43.51
6030;BME280;3043;42.682;23.376;2022-08-20T06:26:27;94566.72;;;36.57;43.48
6030;BME280;3043;42.682;23.376;2022-08-20T06:28:53;94572.53;;;36.67;42.61
6030;BME280;3043;42.682;23.376;2022-08-20T06:31:18;94568.00;;;36.80;42.44
6030;BME280;3043;42.682;23.376;2022-08-20T06:33:46;94571.53;;;36.87;42.66
6030;BME280;3043;42.682;23.376;2022-08-20T06:36:11;94570.91;;;36.79;42.58
6030;BME280;3043;42.682;23.376;2022-08-20T06:38:37;94569.44;;;37.48;41.88
6030;BME280;3043;42.682;23.376;2022-08-20T06:41:02;94565.66;;;38.32;39.71
6030;BME280;3043;42.682;23.376;2022-08-20T06:43:28;94564.41;;;38.72;37.90
6030;BME280;3043;42.682;23.376;2022-08-20T06:45:53;94555.38;;;38.54;38.22
6030;BME280;3043;42.682;23.376;2022-08-20T06:48:22;94560.75;;;38.16;38.04
6030;BME280;3043;42.682;23.376;2022-08-20T06:50:47;94558.06;;;37.26;40.30
6030;BME280;3043;42.682;23.376;2022-08-20T06:53:15;94555.97;;;36.89;41.43
6030;BME280;3043;42.682;23.376;2022-08-20T06:55:46;94550.69;;;36.36;43.18
6030;BME280;3043;42.682;23.376;2022-08-20T06:58:12;94545.72;;;35.79;44.53
6030;BME280;3043;42.682;23.376;2022-08-20T07:00:40;94540.41;;;35.99;44.84
6030;BME280;3043;42.682;23.376;2022-08-20T07:03:06;94546.81;;;36.71;42.89
6030;BME280;3043;42.682;23.376;2022-08-20T07:05:35;94549.34;;;37.05;42.69
6030;BME280;3043;42.682;23.376;2022-08-20T07:08:02;94544.66;;;37.77;39.29
6030;BME280;3043;42.682;23.376;2022-08-20T07:10:28;94534.41;;;37.92;38.56
6030;BME280;3043;42.682;23.376;2022-08-20T07:12:54;94541.63;;;38.05;38.47
6030;BME280;3043;42.682;23.376;2022-08-20T07:15:22;94537.88;;;38.12;38.53
6030;BME280;3043;42.682;23.376;2022-08-20T07:17:55;94535.88;;;37.88;37.76
6030;BME280;3043;42.682;23.376;2022-08-20T07:20:21;94536.00;;;37.49;38.80
6030;BME280;3043;42.682;23.376;2022-08-20T07:22:47;94535.22;;;37.16;39.35
6030;BME280;3043;42.682;23.376;2022-08-20T07:25:14;94522.34;;;37.05;39.60
6030;BME280;3043;42.682;23.376;2022-08-20T07:27:42;94533.16;;;36.79;40.36
6030;BME280;3043;42.682;23.376;2022-08-20T07:30:11;94529.81;;;37.03;40.38
6030;BME280;3043;42.682;23.376;2022-08-20T07:32:55;94524.69;;;36.09;41.53
6030;BME280;3043;42.682;23.376;2022-08-20T07:35:21;94518.84;;;35.92;42.85
6030;BME280;3043;42.682;23.376;2022-08-20T07:37:49;94513.91;;;36.09;42.56
6030;BME280;3043;42.682;23.376;2022-08-20T07:40:45;94524.00;;;36.54;41.39
6030;BME280;3043;42.682;23.376;2022-08-20T07:43:13;94523.53;;;36.44;41.96
6030;BME280;3043;42.682;23.376;2022-08-20T07:45:39;94525.22;;;36.71;41.90
6030;BME280;3043;42.682;23.376;2022-08-20T07:48:10;94517.78;;;36.99;40.82
6030;BME280;3043;42.682;23.376;2022-08-20T07:50:36;94523.16;;;37.18;41.21
6030;BME280;3043;42.682;23.376;2022-08-20T07:53:02;94528.47;;;37.64;40.08
6030;BME280;3043;42.682;23.376;2022-08-20T07:55:28;94511.97;;;37.92;38.44
6030;BME280;3043;42.682;23.376;2022-08-20T07:57:55;94519.56;;;38.21;38.24
6030;BME280;3043;42.682;23.376;2022-08-20T08:00:22;94514.47;;;38.37;37.46
6030;BME280;3043;42.682;23.376;2022-08-20T08:02:48;94514.56;;;38.55;37.58
6030;BME280;3043;42.682;23.376;2022-08-20T08:05:14;94519.72;;;38.63;36.88
6030;BME280;3043;42.682;23.376;2022-08-20T08:07:40;94516.63;;;38.84;36.27
6030;BME280;3043;42.682;23.376;2022-08-20T08:10:08;94520.50;;;38.70;36.11
6030;BME280;3043;42.682;23.376;2022-08-20T08:12:39;94514.38;;;38.06;37.38
6030;BME280;3043;42.682;23.376;2022-08-20T08:15:09;94520.41;;;38.08;38.23
6030;BME280;3043;42.682;23.376;2022-08-20T08:17:36;94525.56;;;38.60;37.21
6030;BME280;3043;42.682;23.376;2022-08-20T08:20:04;94518.53;;;38.77;36.75
6030;BME280;3043;42.682;23.376;2022-08-20T08:22:30;94516.44;;;39.11;36.01
6030;BME280;3043;42.682;23.376;2022-08-20T08:24:57;94511.84;;;39.72;35.52
6030;BME280;3043;42.682;23.376;2022-08-20T08:27:27;94519.97;;;40.08;34.84
6030;BME280;3043;42.682;23.376;2022-08-20T08:29:59;94515.56;;;40.96;32.69
6030;BME280;3043;42.682;23.376;2022-08-20T08:32:26;94514.38;;;40.80;32.38
6030;BME280;3043;42.682;23.376;2022-08-20T08:34:51;94511.69;;;40.03;32.79
6030;BME280;3043;42.682;23.376;2022-08-20T08:37:17;94506.41;;;39.72;33.99
6030;BME280;3043;42.682;23.376;2022-08-20T08:39:42;94506.28;;;39.67;34.47
6030;BME280;3043;42.682;23.376;2022-08-20T08:42:22;94497.97;;;39.80;34.23
6030;BME280;3043;42.682;23.376;2022-08-20T08:44:50;94497.53;;;40.01;33.79
6030;BME280;3043;42.682;23.376;2022-08-20T08:47:26;94489.84;;;39.80;32.59
6030;BME280;3043;42.682;23.376;2022-08-20T08:49:54;94493.19;;;38.96;33.51
6030;BME280;3043;42.682;23.376;2022-08-20T08:52:24;94484.69;;;38.93;34.38
6030;BME280;3043;42.682;23.376;2022-08-20T08:54:55;94489.66;;;39.21;35.11
6030;BME280;3043;42.682;23.376;2022-08-20T08:57:23;94483.63;;;39.19;34.14
6030;BME280;3043;42.682;23.376;2022-08-20T09:00:01;94485.81;;;38.85;34.18
6030;BME280;3043;42.682;23.376;2022-08-20T09:02:29;94475.22;;;38.53;35.53
6030;BME280;3043;42.682;23.376;2022-08-20T09:04:57;94466.75;;;38.98;34.00
6030;BME280;3043;42.682;23.376;2022-08-20T09:07:29;94449.63;;;38.80;34.65
6030;BME280;3043;42.682;23.376;2022-08-20T09:09:56;94470.22;;;38.56;34.43
6030;BME280;3043;42.682;23.376;2022-08-20T09:12:23;94466.28;;;38.52;35.17
6030;BME280;3043;42.682;23.376;2022-08-20T09:14:52;94443.06;;;38.69;34.69
6030;BME280;3043;42.682;23.376;2022-08-20T09:17:20;94454.88;;;38.44;35.14
6030;BME280;3043;42.682;23.376;2022-08-20T09:19:46;94471.66;;;38.83;35.17
6030;BME280;3043;42.682;23.376;2022-08-20T09:22:16;94469.97;;;39.32;33.61
6030;BME280;3043;42.682;23.376;2022-08-20T09:24:43;94467.16;;;38.95;34.04
6030;BME280;3043;42.682;23.376;2022-08-20T09:27:09;94468.34;;;38.81;33.93
6030;BME280;3043;42.682;23.376;2022-08-20T09:29:35;94471.22;;;38.86;33.62
6030;BME280;3043;42.682;23.376;2022-08-20T09:32:09;94461.53;;;38.97;33.35
6030;BME280;3043;42.682;23.376;2022-08-20T09:34:43;94461.72;;;38.77;34.04
6030;BME280;3043;42.682;23.376;2022-08-20T09:37:10;94447.78;;;38.56;35.04
6030;BME280;3043;42.682;23.376;2022-08-20T09:39:36;94445.28;;;39.40;34.14
6030;BME280;3043;42.682;23.376;2022-08-20T09:42:13;94452.94;;;40.56;32.06
6030;BME280;3043;42.682;23.376;2022-08-20T09:44:39;94456.31;;;41.04;31.31
6030;BME280;3043;42.682;23.376;2022-08-20T09:47:05;94455.38;;;41.33;30.97
6030;BME280;3043;42.682;23.376;2022-08-20T09:49:31;94453.72;;;41.32;30.13
6030;BME280;3043;42.682;23.376;2022-08-20T09:51:59;94451.47;;;41.41;30.27
6030;BME280;3043;42.682;23.376;2022-08-20T09:54:26;94440.91;;;39.93;31.53
6030;BME280;3043;42.682;23.376;2022-08-20T09:56:57;94432.41;;;39.35;32.06
6030;BME280;3043;42.682;23.376;2022-08-20T09:59:24;94427.41;;;38.47;33.92
6030;BME280;3043;42.682;23.376;2022-08-20T10:01:50;94446.38;;;37.78;35.60
6030;BME280;3043;42.682;23.376;2022-08-20T10:04:16;94443.66;;;37.78;35.32
6030;BME280;3043;42.682;23.376;2022-08-20T10:06:41;94434.78;;;36.88;36.29
6030;BME280;3043;42.682;23.376;2022-08-20T10:09:07;94445.34;;;36.83;36.49
6030;BME280;3043;42.682;23.376;2022-08-20T10:11:32;94432.19;;;37.25;36.35
6030;BME280;3043;42.682;23.376;2022-08-20T10:13:58;94433.94;;;37.58;36.79
6030;BME280;3043;42.682;23.376;2022-08-20T10:16:23;94438.63;;;38.50;34.69
6030;BME280;3043;42.682;23.376;2022-08-20T10:18:49;94440.97;;;38.16;34.71
6030;BME280;3043;42.682;23.376;2022-08-20T10:21:15;94431.47;;;37.56;35.09
6030;BME280;3043;42.682;23.376;2022-08-20T10:23:40;94439.78;;;37.55;35.34
6030;BME280;3043;42.682;23.376;2022-08-20T10:26:07;94435.00;;;37.57;36.13
6030;BME280;3043;42.682;23.376;2022-08-20T10:28:34;94426.06;;;38.00;35.46
6030;BME280;3043;42.682;23.376;2022-08-20T10:30:59;94415.00;;;38.08;35.63
6030;BME280;3043;42.682;23.376;2022-08-20T10:33:25;94424.41;;;38.61;34.44
6030;BME280;3043;42.682;23.376;2022-08-20T10:35:51;94424.50;;;38.73;33.45
6030;BME280;3043;42.682;23.376;2022-08-20T10:38:16;94416.47;;;38.66;33.26
6030;BME280;3043;42.682;23.376;2022-08-20T10:40:41;94409.28;;;38.96;32.90
6030;BME280;3043;42.682;23.376;2022-08-20T10:43:07;94405.56;;;39.16;32.64
6030;BME280;3043;42.682;23.376;2022-08-20T10:45:32;94414.16;;;39.67;33.46
6030;BME280;3043;42.682;23.376;2022-08-20T10:47:59;94418.38;;;40.22;31.21
6030;BME280;3043;42.682;23.376;2022-08-20T10:50:25;94411.09;;;39.75;31.67
6030;BME280;3043;42.682;23.376;2022-08-20T10:52:50;94414.75;;;39.51;31.83
6030;BME280;3043;42.682;23.376;2022-08-20T10:55:16;94413.09;;;39.14;32.56
6030;BME280;3043;42.682;23.376;2022-08-20T10:57:41;94405.78;;;38.71;32.88
6030;BME280;3043;42.682;23.376;2022-08-20T11:00:07;94390.38;;;38.47;33.52
6030;BME280;3043;42.682;23.376;2022-08-20T11:02:36;94403.69;;;38.73;33.46
6030;BME280;3043;42.682;23.376;2022-08-20T11:05:03;94387.00;;;38.52;34.00
6030;BME280;3043;42.682;23.376;2022-08-20T11:07:32;94394.88;;;38.53;33.65
6030;BME280;3043;42.682;23.376;2022-08-20T11:09:58;94399.00;;;38.62;33.17
6030;BME280;3043;42.682;23.376;2022-08-20T11:12:24;94400.28;;;38.53;33.27
6030;BME280;3043;42.682;23.376;2022-08-20T11:14:51;94394.50;;;37.94;33.39
6030;BME280;3043;42.682;23.376;2022-08-20T11:17:27;94398.59;;;37.21;34.14
6030;BME280;3043;42.682;23.376;2022-08-20T11:19:55;94374.84;;;36.40;36.24
6030;BME280;3043;42.682;23.376;2022-08-20T11:22:21;94384.75;;;36.27;36.77
6030;BME280;3043;42.682;23.376;2022-08-20T11:24:48;94381.84;;;35.82;37.19
6030;BME280;3043;42.682;23.376;2022-08-20T11:27:32;94375.34;;;35.57;39.07
6030;BME280;3043;42.682;23.376;2022-08-20T11:29:58;94359.59;;;35.54;37.31
6030;BME280;3043;42.682;23.376;2022-08-20T11:32:24;94355.91;;;35.68;37.55
6030;BME280;3043;42.682;23.376;2022-08-20T11:34:50;94350.94;;;35.78;37.76
6030;BME280;3043;42.682;23.376;2022-08-20T11:37:17;94349.75;;;36.14;35.92
6030;BME280;3043;42.682;23.376;2022-08-20T11:39:43;94338.53;;;36.17;35.38
6030;BME280;3043;42.682;23.376;2022-08-20T11:42:09;94339.19;;;36.32;35.50
6030;BME280;3043;42.682;23.376;2022-08-20T11:44:34;94342.69;;;36.26;36.00
6030;BME280;3043;42.682;23.376;2022-08-20T11:47:00;94325.47;;;35.74;35.21
6030;BME280;3043;42.682;23.376;2022-08-20T11:49:36;94334.75;;;35.46;36.99
6030;BME280;3043;42.682;23.376;2022-08-20T11:52:03;94341.28;;;35.30;35.45
6030;BME280;3043;42.682;23.376;2022-08-20T11:54:28;94328.38;;;35.06;36.23
6030;BME280;3043;42.682;23.376;2022-08-20T11:56:56;94346.41;;;35.12;35.17
6030;BME280;3043;42.682;23.376;2022-08-20T11:59:23;94335.56;;;34.99;35.29
6030;BME280;3043;42.682;23.376;2022-08-20T12:01:48;94334.81;;;34.78;36.41
6030;BME280;3043;42.682;23.376;2022-08-20T12:04:14;94335.56;;;34.59;35.97
6030;BME280;3043;42.682;23.376;2022-08-20T12:06:39;94333.81;;;34.45;37.09
6030;BME280;3043;42.682;23.376;2022-08-20T12:09:05;94333.03;;;34.51;37.71
6030;BME280;3043;42.682;23.376;2022-08-20T12:11:30;94330.59;;;34.56;38.89
6030;BME280;3043;42.682;23.376;2022-08-20T12:13:55;94326.03;;;34.90;36.37
6030;BME280;3043;42.682;23.376;2022-08-20T12:16:21;94332.44;;;34.89;36.42
6030;BME280;3043;42.682;23.376;2022-08-20T12:18:47;94334.72;;;34.92;36.40
6030;BME280;3043;42.682;23.376;2022-08-20T12:21:13;94332.31;;;34.76;38.30
6030;BME280;3043;42.682;23.376;2022-08-20T12:23:38;94335.81;;;34.36;40.17
6030;BME280;3043;42.682;23.376;2022-08-20T12:26:04;94330.78;;;33.78;42.17
6030;BME280;3043;42.682;23.376;2022-08-20T12:28:30;94333.97;;;33.46;43.42
6030;BME280;3043;42.682;23.376;2022-08-20T12:30:56;94339.31;;;33.25;44.66
6030;BME280;3043;42.682;23.376;2022-08-20T12:33:22;94345.91;;;33.08;46.19
6030;BME280;3043;42.682;23.376;2022-08-20T12:35:47;94346.59;;;32.81;50.88
6030;BME280;3043;42.682;23.376;2022-08-20T12:38:13;94346.44;;;32.38;57.48
6030;BME280;3043;42.682;23.376;2022-08-20T12:40:39;94352.44;;;32.03;60.83
6030;BME280;3043;42.682;23.376;2022-08-20T12:43:05;94352.84;;;31.55;67.13
6030;BME280;3043;42.682;23.376;2022-08-20T12:45:32;94370.19;;;31.06;93.56
6030;BME280;3043;42.682;23.376;2022-08-20T12:48:03;94381.69;;;29.73;100.00
6030;BME280;3043;42.682;23.376;2022-08-20T12:50:30;94393.13;;;28.42;100.00
6030;BME280;3043;42.682;23.376;2022-08-20T12:52:55;94378.13;;;27.47;100.00
6030;BME280;3043;42.682;23.376;2022-08-20T12:55:21;94371.06;;;26.76;100.00
6030;BME280;3043;42.682;23.376;2022-08-20T12:57:50;94373.31;;;26.07;100.00
6030;BME280;3043;42.682;23.376;2022-08-20T13:00:23;94355.69;;;25.31;100.00
6030;BME280;3043;42.682;23.376;2022-08-20T13:02:49;94315.09;;;24.64;100.00
6030;BME280;3043;42.682;23.376;2022-08-20T13:05:15;94296.63;;;24.15;100.00
6030;BME280;3043;42.682;23.376;2022-08-20T13:07:42;94282.97;;;23.80;100.00
6030;BME280;3043;42.682;23.376;2022-08-20T13:10:11;94272.16;;;23.83;100.00
6030;BME280;3043;42.682;23.376;2022-08-20T13:12:37;94263.13;;;23.95;100.00
6030;BME280;3043;42.682;23.376;2022-08-20T13:15:03;94266.28;;;24.19;100.00
6030;BME280;3043;42.682;23.376;2022-08-20T13:17:29;94257.72;;;24.65;100.00